sensor_id;sensor_type;location;lat;lon;timestamp;pressure;altitude;pressure_sealevel;temperature;humidity
69911;BME280;63555;49.920;17.868;2022-10-31T00:01:36;99178.69;;;7.44;100.00
69911;BME280;63555;49.920;17.868;2022-10-31T00:04:02;99175.47;;;7.42;100.00
69911;BME280;63555;49.920;17.868;2022-10-31T00:06:28;99182.53;;;7.41;100.00
69911;BME280;63555;49.920;17.868;2022-10-31T00:08:56;99179.28;;;7.39;100.00
69911;BME280;63555;49.920;17.868;2022-10-31T00:11:21;99172.78;;;7.35;100.00
69911;BME280;63555;49.920;17.868;2022-10-31T00:13:47;99175.41;;;7.35;100.00
69911;BME280;63555;49.920;17.868;2022-10-31T00:16:18;99165.94;;;7.34;100.00
69911;BME280;63555;49.920;17.868;2022-10-31T00:18:43;99172.00;;;7.35;100.00
69911;BME280;63555;49.920;17.868;2022-10-31T00:21:09;99170.56;;;7.32;100.00
69911;BME280;63555;49.920;17.868;2022-10-31T00:23:34;99171.91;;;7.28;100.00
69911;BME280;63555;49.920;17.868;2022-10-31T00:26:03;99173.09;;;7.25;100.00
69911;BME280;63555;49.920;17.868;2022-10-31T00:28:30;99175.28;;;7.22;100.00
69911;BME280;63555;49.920;17.868;2022-10-31T00:31:04;99176.63;;;7.18;100.00
69911;BME280;63555;49.920;17.868;2022-10-31T00:33:30;99180.88;;;7.19;100.00
69911;BME280;63555;49.920;17.868;2022-10-31T00:35:56;99180.06;;;7.18;100.00
69911;BME280;63555;49.920;17.868;2022-10-31T00:38:22;99179.25;;;7.18;100.00
69911;BME280;63555;49.920;17.868;2022-10-31T00:40:47;99169.78;;;7.17;100.00
69911;BME280;63555;49.920;17.868;2022-10-31T00:43:13;99176.81;;;7.16;100.00
69911;BME280;63555;49.920;17.868;2022-10-31T00:45:39;99179.44;;;7.16;100.00
69911;BME280;63555;49.920;17.868;2022-10-31T00:48:04;99174.84;;;7.18;100.00
69911;BME280;63555;49.920;17.868;2022-10-31T00:50:30;99176.63;;;7.18;100.00
69911;BME280;63555;49.920;17.868;2022-10-31T00:52:55;99178.44;;;7.17;100.00
69911;BME280;63555;49.920;17.868;2022-10-31T00:55:21;99179.06;;;7.19;100.00
69911;BME280;63555;49.920;17.868;2022-10-31T00:57:47;99179.50;;;7.23;100.00
69911;BME280;63555;49.920;17.868;2022-10-31T01:00:13;99176.09;;;7.22;100.00
69911;BME280;63555;49.920;17.868;2022-10-31T01:02:39;99178.88;;;7.21;100.00
69911;BME280;63555;49.920;17.868;2022-10-31T01:05:05;99177.88;;;7.22;100.00
69911;BME280;63555;49.920;17.868;2022-10-31T01:07:30;99179.69;;;7.21;100.00
69911;BME280;63555;49.920;17.868;2022-10-31T01:09:56;99177.72;;;7.23;100.00
69911;BME280;63555;49.920;17.868;2022-10-31T01:12:21;99172.66;;;7.22;100.00
69911;BME280;63555;49.920;17.868;2022-10-31T01:14:47;99176.91;;;7.23;100.00
69911;BME280;63555;49.920;17.868;2022-10-31T01:17:13;99180.13;;;7.25;100.00
69911;BME280;63555;49.920;17.868;2022-10-31T01:19:38;99179.13;;;7.26;100.00
69911;BME280;63555;49.920;17.868;2022-10-31T01:22:04;99185.19;;;7.27;100.00
69911;BME280;63555;49.920;17.868;2022-10-31T01:24:30;99176.53;;;7.26;100.00
69911;BME280;63555;49.920;17.868;2022-10-31T01:26:55;99183.38;;;7.27;100.00
69911;BME280;63555;49.920;17.868;2022-10-31T01:29:20;99178.78;;;7.29;100.00
69911;BME280;63555;49.920;17.868;2022-10-31T01:31:46;99175.53;;;7.27;100.00
69911;BME280;63555;49.920;17.868;2022-10-31T01:34:16;99182.38;;;7.28;100.00
69911;BME280;63555;49.920;17.868;2022-10-31T01:36:44;99178.97;;;7.28;100.00
69911;BME280;63555;49.920;17.868;2022-10-31T01:39:14;99177.78;;;7.30;100.00
69911;BME280;63555;49.920;17.868;2022-10-31T01:41:46;99182.19;;;7.30;100.00
69911;BME280;63555;49.920;17.868;2022-10-31T01:46:49;99180.56;;;7.29;100.00
69911;BME280;63555;49.920;17.868;2022-10-31T01:49:34;99175.09;;;7.23;100.00
69911;BME280;63555;49.920;17.868;2022-10-31T01:54:41;99172.03;;;7.20;100.00
69911;BME280;63555;49.920;17.868;2022-10-31T01:57:10;99168.78;;;7.18;100.00
69911;BME280;63555;49.920;17.868;2022-10-31T01:59:43;99172.59;;;7.15;100.00
69911;BME280;63555;49.920;17.868;2022-10-31T02:02:10;99172.13;;;7.12;100.00
69911;BME280;63555;49.920;17.868;2022-10-31T02:04:36;99162.84;;;7.09;100.00
69911;BME280;63555;49.920;17.868;2022-10-31T02:07:05;99166.66;;;7.07;100.00
69911;BME280;63555;49.920;17.868;2022-10-31T02:09:31;99168.81;;;7.03;100.00
69911;BME280;63555;49.920;17.868;2022-10-31T02:11:58;99167.38;;;7.01;100.00
69911;BME280;63555;49.920;17.868;2022-10-31T02:14:26;99165.78;;;7.00;100.00
69911;BME280;63555;49.920;17.868;2022-10-31T02:16:53;99158.66;;;6.93;100.00
69911;BME280;63555;49.920;17.868;2022-10-31T02:19:50;99164.06;;;6.92;100.00
69911;BME280;63555;49.920;17.868;2022-10-31T02:22:29;99169.66;;;6.89;100.00
69911;BME280;63555;49.920;17.868;2022-10-31T02:28:17;99162.19;;;6.86;100.00
69911;BME280;63555;49.920;17.868;2022-10-31T02:31:17;99165.16;;;6.83;100.00
69911;BME280;63555;49.920;17.868;2022-10-31T02:33:51;99161.47;;;6.77;100.00
69911;BME280;63555;49.920;17.868;2022-10-31T02:43:56;99168.41;;;6.70;100.00
69911;BME280;63555;49.920;17.868;2022-10-31T02:49:10;99172.59;;;6.65;100.00
69911;BME280;63555;49.920;17.868;2022-10-31T02:51:39;99169.53;;;6.61;100.00
69911;BME280;63555;49.920;17.868;2022-10-31T02:54:04;99185.59;;;6.58;100.00
69911;BME280;63555;49.920;17.868;2022-10-31T02:56:30;99179.91;;;6.54;100.00
69911;BME280;63555;49.920;17.868;2022-10-31T02:59:00;99187.28;;;6.51;100.00
69911;BME280;63555;49.920;17.868;2022-10-31T03:17:05;99198.53;;;6.37;100.00
69911;BME280;63555;49.920;17.868;2022-10-31T03:19:38;99206.75;;;6.34;100.00
69911;BME280;63555;49.920;17.868;2022-10-31T03:22:12;99208.09;;;6.30;100.00
69911;BME280;63555;49.920;17.868;2022-10-31T03:24:41;99208.09;;;6.30;100.00
69911;BME280;63555;49.920;17.868;2022-10-31T03:27:10;99208.63;;;6.25;100.00
69911;BME280;63555;49.920;17.868;2022-10-31T03:29:37;99206.19;;;6.23;100.00
69911;BME280;63555;49.920;17.868;2022-10-31T03:32:10;99212.56;;;6.21;100.00
69911;BME280;63555;49.920;17.868;2022-10-31T03:34:39;99220.94;;;6.16;100.00
69911;BME280;63555;49.920;17.868;2022-10-31T03:37:09;99210.50;;;6.16;100.00
69911;BME280;63555;49.920;17.868;2022-10-31T03:39:37;99217.34;;;6.17;100.00
69911;BME280;63555;49.920;17.868;2022-10-31T03:42:15;99220.94;;;6.16;100.00
69911;BME280;63555;49.920;17.868;2022-10-31T03:44:46;99222.28;;;6.12;100.00
69911;BME280;63555;49.920;17.868;2022-10-31T03:47:13;99219.22;;;6.09;100.00
69911;BME280;63555;49.920;17.868;2022-10-31T03:49:39;99221.81;;;6.09;100.00
69911;BME280;63555;49.920;17.868;2022-10-31T03:52:13;99218.56;;;6.07;100.00
69911;BME280;63555;49.920;17.868;2022-10-31T03:54:46;99223.34;;;6.03;100.00
69911;BME280;63555;49.920;17.868;2022-10-31T03:57:21;99226.94;;;6.02;100.00
69911;BME280;63555;49.920;17.868;2022-10-31T04:00:05;99222.88;;;6.00;100.00
69911;BME280;63555;49.920;17.868;2022-10-31T04:02:33;99226.47;;;5.99;100.00
69911;BME280;63555;49.920;17.868;2022-10-31T04:05:01;99220.63;;;5.97;100.00
69911;BME280;63555;49.920;17.868;2022-10-31T04:07:31;99237.72;;;5.99;100.00
69911;BME280;63555;49.920;17.868;2022-10-31T04:10:00;99232.06;;;5.96;100.00
69911;BME280;63555;49.920;17.868;2022-10-31T04:12:29;99235.84;;;5.93;100.00
69911;BME280;63555;49.920;17.868;2022-10-31T04:14:56;99242.25;;;5.90;100.00
69911;BME280;63555;49.920;17.868;2022-10-31T04:17:26;99241.75;;;5.87;100.00
69911;BME280;63555;49.920;17.868;2022-10-31T04:19:53;99246.31;;;5.85;100.00
69911;BME280;63555;49.920;17.868;2022-10-31T04:22:18;99244.88;;;5.82;100.00
69911;BME280;63555;49.920;17.868;2022-10-31T04:24:44;99246.22;;;5.78;100.00
69911;BME280;63555;49.920;17.868;2022-10-31T04:27:09;99252.59;;;5.76;100.00
69911;BME280;63555;49.920;17.868;2022-10-31T04:29:35;99255.84;;;5.78;100.00
69911;BME280;63555;49.920;17.868;2022-10-31T04:32:00;99251.44;;;5.78;100.00
69911;BME280;63555;49.920;17.868;2022-10-31T04:34:25;99259.09;;;5.80;100.00
69911;BME280;63555;49.920;17.868;2022-10-31T04:36:51;99255.84;;;5.78;100.00
69911;BME280;63555;49.920;17.868;2022-10-31T04:39:16;99254.22;;;5.77;100.00
69911;BME280;63555;49.920;17.868;2022-10-31T04:41:41;99254.38;;;5.75;100.00
69911;BME280;63555;49.920;17.868;2022-10-31T04:44:07;99252.59;;;5.76;100.00
69911;BME280;63555;49.920;17.868;2022-10-31T04:46:32;99252.59;;;5.76;100.00
69911;BME280;63555;49.920;17.868;2022-10-31T04:48:58;99264.19;;;5.73;100.00
69911;BME280;63555;49.920;17.868;2022-10-31T04:51:23;99262.09;;;5.69;100.00
69911;BME280;63555;49.920;17.868;2022-10-31T04:53:49;99262.09;;;5.69;100.00
69911;BME280;63555;49.920;17.868;2022-10-31T04:56:14;99261.47;;;5.67;100.00
69911;BME280;63555;49.920;17.868;2022-10-31T04:58:40;99258.84;;;5.67;100.00
69911;BME280;63555;49.920;17.868;2022-10-31T05:01:05;99263.25;;;5.66;100.00
69911;BME280;63555;49.920;17.868;2022-10-31T05:03:30;99255.59;;;5.65;100.00
69911;BME280;63555;49.920;17.868;2022-10-31T05:05:56;99253.81;;;5.65;100.00
69911;BME280;63555;49.920;17.868;2022-10-31T05:08:22;99263.25;;;5.66;100.00
69911;BME280;63555;49.920;17.868;2022-10-31T05:10:47;99256.94;;;5.60;100.00
69911;BME280;63555;49.920;17.868;2022-10-31T05:13:12;99262.50;;;5.57;100.00
69911;BME280;63555;49.920;17.868;2022-10-31T05:15:40;99260.69;;;5.58;100.00
69911;BME280;63555;49.920;17.868;2022-10-31T05:18:05;99266.72;;;5.58;100.00
69911;BME280;63555;49.920;17.868;2022-10-31T05:20:31;99265.91;;;5.58;100.00
69911;BME280;63555;49.920;17.868;2022-10-31T05:22:57;99262.66;;;5.56;100.00
69911;BME280;63555;49.920;17.868;2022-10-31T05:25:26;99265.09;;;5.57;100.00
69911;BME280;63555;49.920;17.868;2022-10-31T05:27:52;99256.47;;;5.57;100.00
69911;BME280;63555;49.920;17.868;2022-10-31T05:30:21;99262.66;;;5.56;100.00
69911;BME280;63555;49.920;17.868;2022-10-31T05:32:49;99263.47;;;5.56;100.00
69911;BME280;63555;49.920;17.868;2022-10-31T05:35:17;99265.09;;;5.57;100.00
69911;BME280;63555;49.920;17.868;2022-10-31T05:37:43;99271.13;;;5.58;100.00
69911;BME280;63555;49.920;17.868;2022-10-31T05:40:11;99276.19;;;5.59;100.00
69911;BME280;63555;49.920;17.868;2022-10-31T05:42:41;99279.59;;;5.60;100.00
69911;BME280;63555;49.920;17.868;2022-10-31T05:45:08;99280.41;;;5.60;100.00
69911;BME280;63555;49.920;17.868;2022-10-31T05:47:34;99282.03;;;5.61;100.00
69911;BME280;63555;49.920;17.868;2022-10-31T05:49:59;99286.91;;;5.65;100.00
69911;BME280;63555;49.920;17.868;2022-10-31T05:52:25;99287.56;;;5.67;100.00
69911;BME280;63555;49.920;17.868;2022-10-31T05:54:50;99293.88;;;5.72;100.00
69911;BME280;63555;49.920;17.868;2022-10-31T05:57:15;99290.13;;;5.75;100.00
69911;BME280;63555;49.920;17.868;2022-10-31T05:59:41;99289.59;;;5.79;100.00
69911;BME280;63555;49.920;17.868;2022-10-31T06:02:06;99304.09;;;5.82;100.00
69911;BME280;63555;49.920;17.868;2022-10-31T06:04:32;99300.00;;;5.87;100.00
69911;BME280;63555;49.920;17.868;2022-10-31T06:06:57;99300.91;;;5.94;100.00
69911;BME280;63555;49.920;17.868;2022-10-31T06:09:23;99297.44;;;6.02;100.00
69911;BME280;63555;49.920;17.868;2022-10-31T06:11:50;99299.53;;;6.07;100.00
69911;BME280;63555;49.920;17.868;2022-10-31T06:14:16;99300.44;;;6.14;100.00
69911;BME280;63555;49.920;17.868;2022-10-31T06:16:41;99296.34;;;6.19;100.00
69911;BME280;63555;49.920;17.868;2022-10-31T06:19:07;99292.66;;;6.29;100.00
69911;BME280;63555;49.920;17.868;2022-10-31T06:21:32;99295.84;;;6.39;100.00
69911;BME280;63555;49.920;17.868;2022-10-31T06:23:57;99298.38;;;6.47;100.00
69911;BME280;63555;49.920;17.868;2022-10-31T06:26:23;99304.19;;;6.57;100.00
69911;BME280;63555;49.920;17.868;2022-10-31T06:28:48;99310.13;;;6.66;100.00
69911;BME280;63555;49.920;17.868;2022-10-31T06:31:14;99312.47;;;6.75;100.00
69911;BME280;63555;49.920;17.868;2022-10-31T06:33:41;99306.81;;;6.86;100.00
69911;BME280;63555;49.920;17.868;2022-10-31T06:36:07;99307.34;;;6.97;100.00
69911;BME280;63555;49.920;17.868;2022-10-31T06:38:33;99312.94;;;7.08;100.00
69911;BME280;63555;49.920;17.868;2022-10-31T06:41:02;99305.28;;;7.21;100.00
69911;BME280;63555;49.920;17.868;2022-10-31T06:43:29;99315.09;;;7.34;100.00
69911;BME280;63555;49.920;17.868;2022-10-31T06:45:54;99309.38;;;7.45;100.00
69911;BME280;63555;49.920;17.868;2022-10-31T06:48:20;99311.50;;;7.56;100.00
69911;BME280;63555;49.920;17.868;2022-10-31T06:50:45;99313.47;;;7.69;100.00
69911;BME280;63555;49.920;17.868;2022-10-31T06:53:11;99312.81;;;7.82;100.00
69911;BME280;63555;49.920;17.868;2022-10-31T06:55:36;99313.94;;;7.94;100.00
69911;BME280;63555;49.920;17.868;2022-10-31T06:58:02;99313.44;;;8.05;100.00
69911;BME280;63555;49.920;17.868;2022-10-31T07:00:28;99319.78;;;8.17;100.00
69911;BME280;63555;49.920;17.868;2022-10-31T07:03:06;99315.03;;;8.28;100.00
69911;BME280;63555;49.920;17.868;2022-10-31T07:05:33;99318.00;;;8.39;100.00
69911;BME280;63555;49.920;17.868;2022-10-31T07:08:00;99321.16;;;8.56;100.00
69911;BME280;63555;49.920;17.868;2022-10-31T07:10:27;99325.69;;;8.69;100.00
69911;BME280;63555;49.920;17.868;2022-10-31T07:13:01;99324.97;;;8.81;100.00
69911;BME280;63555;49.920;17.868;2022-10-31T07:15:28;99322.59;;;8.93;100.00
69911;BME280;63555;49.920;17.868;2022-10-31T07:17:59;99320.06;;;9.06;100.00
69911;BME280;63555;49.920;17.868;2022-10-31T07:20:24;99325.41;;;9.26;100.00
69911;BME280;63555;49.920;17.868;2022-10-31T07:22:50;99335.78;;;9.41;100.00
69911;BME280;63555;49.920;17.868;2022-10-31T07:25:15;99336.66;;;9.54;100.00
69911;BME280;63555;49.920;17.868;2022-10-31T07:27:42;99321.34;;;9.71;100.00
69911;BME280;63555;49.920;17.868;2022-10-31T07:30:09;99318.34;;;9.87;100.00
69911;BME280;63555;49.920;17.868;2022-10-31T07:32:49;99322.03;;;10.06;100.00
69911;BME280;63555;49.920;17.868;2022-10-31T07:35:25;99325.53;;;10.27;100.00
69911;BME280;63555;49.920;17.868;2022-10-31T07:37:51;99322.69;;;10.48;100.00
69911;BME280;63555;49.920;17.868;2022-10-31T07:40:18;99318.84;;;10.70;100.00
69911;BME280;63555;49.920;17.868;2022-10-31T07:42:47;99322.25;;;10.91;100.00
69911;BME280;63555;49.920;17.868;2022-10-31T07:45:15;99322.38;;;11.15;100.00
69911;BME280;63555;49.920;17.868;2022-10-31T07:47:48;99328.19;;;11.37;100.00
69911;BME280;63555;49.920;17.868;2022-10-31T07:50:17;99324.88;;;11.62;100.00
69911;BME280;63555;49.920;17.868;2022-10-31T07:52:43;99319.13;;;11.84;100.00
69911;BME280;63555;49.920;17.868;2022-10-31T07:55:09;99322.78;;;12.08;100.00
69911;BME280;63555;49.920;17.868;2022-10-31T07:57:34;99317.13;;;12.36;100.00
69911;BME280;63555;49.920;17.868;2022-10-31T08:00:05;99326.88;;;12.61;100.00
69911;BME280;63555;49.920;17.868;2022-10-31T08:02:31;99330.28;;;12.86;100.00
69911;BME280;63555;49.920;17.868;2022-10-31T08:04:56;99333.69;;;13.11;100.00
69911;BME280;63555;49.920;17.868;2022-10-31T08:07:22;99328.13;;;13.38;100.00
69911;BME280;63555;49.920;17.868;2022-10-31T08:09:47;99322.97;;;13.61;100.00
69911;BME280;63555;49.920;17.868;2022-10-31T08:12:13;99325.41;;;13.93;100.00
69911;BME280;63555;49.920;17.868;2022-10-31T08:14:38;99319.06;;;14.35;100.00
69911;BME280;63555;49.920;17.868;2022-10-31T08:17:03;99322.69;;;14.88;100.00
69911;BME280;63555;49.920;17.868;2022-10-31T08:19:29;99312.44;;;15.55;100.00
69911;BME280;63555;49.920;17.868;2022-10-31T08:21:54;99306.69;;;16.31;100.00
69911;BME280;63555;49.920;17.868;2022-10-31T08:24:23;99307.81;;;17.07;100.00
69911;BME280;63555;49.920;17.868;2022-10-31T08:26:49;99308.38;;;17.75;100.00
69911;BME280;63555;49.920;17.868;2022-10-31T08:29:14;99302.22;;;18.28;100.00
69911;BME280;63555;49.920;17.868;2022-10-31T08:31:41;99294.50;;;19.06;100.00
69911;BME280;63555;49.920;17.868;2022-10-31T08:34:07;99292.09;;;19.77;100.00
69911;BME280;63555;49.920;17.868;2022-10-31T08:36:33;99291.09;;;20.39;100.00
69911;BME280;63555;49.920;17.868;2022-10-31T08:38:58;99292.31;;;20.97;100.00
69911;BME280;63555;49.920;17.868;2022-10-31T08:41:24;99286.81;;;21.48;100.00
69911;BME280;63555;49.920;17.868;2022-10-31T08:43:49;99284.75;;;21.79;100.00
69911;BME280;63555;49.920;17.868;2022-10-31T08:46:15;99284.28;;;22.11;100.00
69911;BME280;63555;49.920;17.868;2022-10-31T08:48:41;99282.03;;;22.52;100.00
69911;BME280;63555;49.920;17.868;2022-10-31T08:51:06;99272.81;;;22.92;100.00
69911;BME280;63555;49.920;17.868;2022-10-31T08:53:32;99269.91;;;23.32;100.00
69911;BME280;63555;49.920;17.868;2022-10-31T08:55:57;99268.47;;;23.63;100.00
69911;BME280;63555;49.920;17.868;2022-10-31T08:58:23;99265.38;;;23.88;97.53
69911;BME280;63555;49.920;17.868;2022-10-31T09:00:51;99267.31;;;24.20;92.28
69911;BME280;63555;49.920;17.868;2022-10-31T09:03:21;99259.22;;;24.39;89.36
69911;BME280;63555;49.920;17.868;2022-10-31T09:05:47;99262.03;;;24.62;86.30
69911;BME280;63555;49.920;17.868;2022-10-31T09:08:13;99264.84;;;24.84;84.13
69911;BME280;63555;49.920;17.868;2022-10-31T09:10:39;99269.16;;;24.99;81.77
69911;BME280;63555;49.920;17.868;2022-10-31T09:13:08;99257.81;;;25.15;79.64
69911;BME280;63555;49.920;17.868;2022-10-31T09:15:36;99262.13;;;25.39;76.98
69911;BME280;63555;49.920;17.868;2022-10-31T09:18:04;99266.78;;;25.61;76.29
69911;BME280;63555;49.920;17.868;2022-10-31T09:20:32;99273.63;;;25.80;74.91
69911;BME280;63555;49.920;17.868;2022-10-31T09:23:00;99265.84;;;26.01;74.72
69911;BME280;63555;49.920;17.868;2022-10-31T09:25:26;99265.06;;;26.23;73.66
69911;BME280;63555;49.920;17.868;2022-10-31T09:27:59;99264.22;;;26.36;74.29
69911;BME280;63555;49.920;17.868;2022-10-31T09:30:27;99257.22;;;26.66;71.42
69911;BME280;63555;49.920;17.868;2022-10-31T09:33:09;99264.44;;;26.88;68.25
69911;BME280;63555;49.920;17.868;2022-10-31T09:35:37;99259.00;;;27.10;66.59
69911;BME280;63555;49.920;17.868;2022-10-31T09:38:22;99254.25;;;27.16;65.51
69911;BME280;63555;49.920;17.868;2022-10-31T09:45:56;99250.81;;;27.85;62.73
69911;BME280;63555;49.920;17.868;2022-10-31T09:51:07;99248.69;;;28.33;61.29
69911;BME280;63555;49.920;17.868;2022-10-31T09:53:39;99246.22;;;28.58;59.14
69911;BME280;63555;49.920;17.868;2022-10-31T09:56:13;99238.66;;;28.89;57.82
69911;BME280;63555;49.920;17.868;2022-10-31T09:58:43;99240.72;;;29.13;56.94
69911;BME280;63555;49.920;17.868;2022-10-31T10:01:22;99237.81;;;29.18;55.62
69911;BME280;63555;49.920;17.868;2022-10-31T10:03:55;99229.00;;;29.30;53.04
69911;BME280;63555;49.920;17.868;2022-10-31T10:06:25;99239.78;;;29.38;51.44
69911;BME280;63555;49.920;17.868;2022-10-31T10:08:52;99242.78;;;29.46;50.81
69911;BME280;63555;49.920;17.868;2022-10-31T10:14:19;99234.13;;;29.52;49.76
69911;BME280;63555;49.920;17.868;2022-10-31T10:20:05;99233.34;;;29.85;47.90
69911;BME280;63555;49.920;17.868;2022-10-31T10:27:50;99235.47;;;29.79;46.65
69911;BME280;63555;49.920;17.868;2022-10-31T10:30:22;99241.84;;;29.62;46.46
69911;BME280;63555;49.920;17.868;2022-10-31T10:32:58;99232.91;;;29.41;46.16
69911;BME280;63555;49.920;17.868;2022-10-31T10:38:03;99226.31;;;29.51;45.85
69911;BME280;63555;49.920;17.868;2022-10-31T10:40:29;99230.69;;;29.43;45.00
69911;BME280;63555;49.920;17.868;2022-10-31T10:46:18;99219.94;;;28.67;44.91
69911;BME280;63555;49.920;17.868;2022-10-31T10:59:48;99203.88;;;29.21;44.50
69911;BME280;63555;49.920;17.868;2022-10-31T11:02:32;99210.84;;;29.51;45.04
69911;BME280;63555;49.920;17.868;2022-10-31T11:05:00;99215.09;;;29.73;44.19
69911;BME280;63555;49.920;17.868;2022-10-31T11:07:37;99209.13;;;29.67;43.40
69911;BME280;63555;49.920;17.868;2022-10-31T11:10:14;99208.06;;;29.60;42.39
69911;BME280;63555;49.920;17.868;2022-10-31T11:12:42;99200.31;;;29.70;42.54
69911;BME280;63555;49.920;17.868;2022-10-31T11:15:18;99202.53;;;29.56;41.71
69911;BME280;63555;49.920;17.868;2022-10-31T11:17:49;99204.84;;;29.46;40.90
69911;BME280;63555;49.920;17.868;2022-10-31T11:22:47;99197.72;;;29.32;39.94
69911;BME280;63555;49.920;17.868;2022-10-31T11:27:46;99197.16;;;29.48;38.93
69911;BME280;63555;49.920;17.868;2022-10-31T11:30:14;99196.44;;;29.59;39.29
69911;BME280;63555;49.920;17.868;2022-10-31T11:32:48;99193.66;;;29.80;38.87
69911;BME280;63555;49.920;17.868;2022-10-31T11:35:17;99188.84;;;29.86;38.26
69911;BME280;63555;49.920;17.868;2022-10-31T11:37:45;99187.19;;;29.72;38.77
69911;BME280;63555;49.920;17.868;2022-10-31T11:40:20;99191.13;;;29.63;38.43
69911;BME280;63555;49.920;17.868;2022-10-31T11:42:48;99192.63;;;29.72;38.97
69911;BME280;63555;49.920;17.868;2022-10-31T11:45:28;99181.09;;;29.63;38.27
69911;BME280;63555;49.920;17.868;2022-10-31T11:47:56;99186.53;;;29.42;37.95
69911;BME280;63555;49.920;17.868;2022-10-31T11:50:22;99188.88;;;29.23;38.52
69911;BME280;63555;49.920;17.868;2022-10-31T11:52:50;99188.72;;;29.20;38.90
69911;BME280;63555;49.920;17.868;2022-10-31T11:55:29;99180.47;;;29.16;38.98
69911;BME280;63555;49.920;17.868;2022-10-31T11:57:56;99184.03;;;29.08;38.41
69911;BME280;63555;49.920;17.868;2022-10-31T12:00:29;99177.97;;;29.11;38.71
69911;BME280;63555;49.920;17.868;2022-10-31T12:03:16;99177.50;;;29.09;38.81
69911;BME280;63555;49.920;17.868;2022-10-31T12:05:57;99176.97;;;29.16;38.34
69911;BME280;63555;49.920;17.868;2022-10-31T12:08:29;99183.72;;;29.30;38.62
69911;BME280;63555;49.920;17.868;2022-10-31T12:11:17;99180.69;;;29.32;38.23
69911;BME280;63555;49.920;17.868;2022-10-31T12:14:00;99175.25;;;29.32;38.24
69911;BME280;63555;49.920;17.868;2022-10-31T12:16:48;99177.09;;;29.19;38.96
69911;BME280;63555;49.920;17.868;2022-10-31T12:24:45;99167.22;;;28.26;40.17
69911;BME280;63555;49.920;17.868;2022-10-31T12:30:13;99173.06;;;27.30;42.44
69911;BME280;63555;49.920;17.868;2022-10-31T12:50:02;99169.34;;;25.23;48.07
69911;BME280;63555;49.920;17.868;2022-10-31T12:55:42;99166.97;;;24.94;49.62
69911;BME280;63555;49.920;17.868;2022-10-31T12:58:35;99171.28;;;24.53;50.33
69911;BME280;63555;49.920;17.868;2022-10-31T13:01:27;99157.38;;;24.05;52.00
69911;BME280;63555;49.920;17.868;2022-10-31T13:04:05;99171.72;;;23.68;53.17
69911;BME280;63555;49.920;17.868;2022-10-31T13:06:42;99171.97;;;23.48;53.84
69911;BME280;63555;49.920;17.868;2022-10-31T13:09:15;99174.88;;;23.33;54.52
69911;BME280;63555;49.920;17.868;2022-10-31T13:11:51;99167.75;;;23.04;54.62
69911;BME280;63555;49.920;17.868;2022-10-31T13:16:47;99172.25;;;22.66;56.88
69911;BME280;63555;49.920;17.868;2022-10-31T13:19:26;99169.16;;;22.54;57.30
69911;BME280;63555;49.920;17.868;2022-10-31T13:21:59;99166.88;;;22.42;57.66
69911;BME280;63555;49.920;17.868;2022-10-31T13:24:44;99169.50;;;22.23;58.08
69911;BME280;63555;49.920;17.868;2022-10-31T13:27:44;99162.97;;;22.06;59.00
69911;BME280;63555;49.920;17.868;2022-10-31T13:30:20;99168.44;;;21.90;60.11
69911;BME280;63555;49.920;17.868;2022-10-31T13:33:05;99168.75;;;21.84;61.01
69911;BME280;63555;49.920;17.868;2022-10-31T13:35:37;99169.91;;;21.73;61.68
69911;BME280;63555;49.920;17.868;2022-10-31T13:38:28;99174.66;;;21.52;63.01
69911;BME280;63555;49.920;17.868;2022-10-31T13:41:04;99174.16;;;21.45;63.96
69911;BME280;63555;49.920;17.868;2022-10-31T13:43:59;99171.25;;;21.36;65.18
69911;BME280;63555;49.920;17.868;2022-10-31T13:46:37;99176.13;;;21.29;66.19
69911;BME280;63555;49.920;17.868;2022-10-31T13:49:04;99169.72;;;21.20;66.64
69911;BME280;63555;49.920;17.868;2022-10-31T13:51:34;99168.72;;;21.06;67.82
69911;BME280;63555;49.920;17.868;2022-10-31T13:54:21;99177.31;;;20.97;69.18
69911;BME280;63555;49.920;17.868;2022-10-31T13:56:51;99169.06;;;20.89;69.82
69911;BME280;63555;49.920;17.868;2022-10-31T13:59:21;99173.91;;;20.82;70.44
69911;BME280;63555;49.920;17.868;2022-10-31T14:02:00;99174.78;;;20.72;71.18
69911;BME280;63555;49.920;17.868;2022-10-31T14:04:37;99168.66;;;20.61;72.00
69911;BME280;63555;49.920;17.868;2022-10-31T14:07:14;99170.84;;;20.49;73.07
69911;BME280;63555;49.920;17.868;2022-10-31T14:12:43;99170.59;;;20.25;75.55
69911;BME280;63555;49.920;17.868;2022-10-31T14:15:18;99169.25;;;20.13;77.24
69911;BME280;63555;49.920;17.868;2022-10-31T14:22:41;99166.63;;;19.67;82.90
69911;BME280;63555;49.920;17.868;2022-10-31T14:25:44;99162.31;;;19.51;84.99
69911;BME280;63555;49.920;17.868;2022-10-31T14:28:31;99171.63;;;19.38;86.39
69911;BME280;63555;49.920;17.868;2022-10-31T14:30:58;99159.63;;;19.25;87.56
69911;BME280;63555;49.920;17.868;2022-10-31T14:33:27;99165.75;;;19.16;89.34
69911;BME280;63555;49.920;17.868;2022-10-31T14:36:03;99172.91;;;19.05;92.15
69911;BME280;63555;49.920;17.868;2022-10-31T14:39:03;99169.13;;;18.91;94.66
69911;BME280;63555;49.920;17.868;2022-10-31T14:52:40;99153.81;;;18.19;100.00
69911;BME280;63555;49.920;17.868;2022-10-31T14:55:12;99159.59;;;18.05;100.00
69911;BME280;63555;49.920;17.868;2022-10-31T14:57:47;99154.44;;;17.94;100.00
69911;BME280;63555;49.920;17.868;2022-10-31T15:00:20;99155.72;;;17.81;100.00
69911;BME280;63555;49.920;17.868;2022-10-31T15:03:15;99160.13;;;17.70;100.00
69911;BME280;63555;49.920;17.868;2022-10-31T15:05:54;99159.72;;;17.57;100.00
69911;BME280;63555;49.920;17.868;2022-10-31T15:10:54;99159.13;;;17.23;100.00